Time;durP1;ratioP1;P1;durP2;ratioP2;P2;SDS_P1;SDS_P2;PMS_P1;PMS_P2;Temp;Humidity;BMP_temperature;BMP_pressure;BME280_temperature;BME280_humidity;BME280_pressure;Samples;Min_cycle;Max_cycle;Signal;HPM_P1;HPM_P2
2023/11/15 00:00:18;;;;;;;4.17;2.50;;;;;;;10.47;73.39;98634.84;5086323;28;20197;-73
2023/11/15 00:02:46;;;;;;;8.90;2.77;;;;;;;10.47;73.06;98627.97;5084386;28;20208;-71
2023/11/15 00:05:14;;;;;;;7.93;3.87;;;;;;;10.48;72.23;98632.22;5086882;28;20211;-75
2023/11/15 00:07:42;;;;;;;4.33;2.83;;;;;;;10.49;73.38;98612.47;5091682;28;20623;-73
2023/11/15 00:10:13;;;;;;;6.27;2.93;;;;;;;10.50;72.25;98620.16;5090976;28;20255;-71
2023/11/15 00:12:42;;;;;;;8.63;2.90;;;;;;;10.49;72.42;98620.19;5089336;28;20205;-72
2023/11/15 00:15:11;;;;;;;6.67;2.80;;;;;;;10.41;73.62;98615.28;5091221;28;20201;-73
2023/11/15 00:17:39;;;;;;;8.63;3.10;;;;;;;10.48;73.55;98621.09;5090071;28;20277;-72
2023/11/15 00:20:12;;;;;;;4.30;2.10;;;;;;;10.45;73.86;98626.34;5087403;28;20224;-74
2023/11/15 00:22:40;;;;;;;9.23;2.97;;;;;;;10.42;73.60;98623.84;5096734;28;20212;-73
2023/11/15 00:25:09;;;;;;;6.03;2.87;;;;;;;10.40;73.68;98624.75;5091618;28;20208;-69
2023/11/15 00:27:38;;;;;;;7.57;3.20;;;;;;;10.40;73.38;98618.78;5090324;28;20196;-70
2023/11/15 00:30:10;;;;;;;6.40;2.70;;;;;;;10.37;73.03;98613.72;5087026;28;20212;-72
2023/11/15 00:32:38;;;;;;;5.97;2.33;;;;;;;10.37;74.64;98629.16;5088308;28;20198;-74
2023/11/15 00:35:08;;;;;;;7.63;3.30;;;;;;;10.33;73.63;98620.69;5084622;28;20295;-72
2023/11/15 00:37:36;;;;;;;4.83;2.43;;;;;;;10.32;74.23;98621.59;5087267;28;20529;-70
2023/11/15 00:40:05;;;;;;;6.90;2.70;;;;;;;10.29;75.40;98624.28;5087824;28;20917;-69
2023/11/15 00:42:33;;;;;;;6.27;2.97;;;;;;;10.27;75.43;98626.06;5095301;28;20721;-74
2023/11/15 00:45:04;;;;;;;7.73;3.17;;;;;;;10.26;75.14;98631.25;5096778;28;20307;-72
2023/11/15 00:47:34;;;;;;;8.83;2.80;;;;;;;10.27;75.29;98622.63;5097888;28;20674;-73
2023/11/15 00:50:03;;;;;;;7.20;2.27;;;;;;;10.24;75.32;98612.44;5087605;28;20243;-71
2023/11/15 00:52:31;;;;;;;7.87;3.40;;;;;;;10.21;74.81;98626.22;5090266;28;20632;-72
2023/11/15 00:54:59;;;;;;;10.60;2.53;;;;;;;10.19;74.74;98619.44;5089670;28;20659;-72
2023/11/15 00:57:27;;;;;;;6.30;2.67;;;;;;;10.20;75.06;98628.84;5083077;28;20192;-72
2023/11/15 00:59:55;;;;;;;5.37;2.90;;;;;;;10.13;75.62;98625.66;5092767;28;20246;-74
2023/11/15 01:02:26;;;;;;;10.97;3.07;;;;;;;10.10;75.31;98621.44;5092865;28;20295;-73
2023/11/15 01:04:55;;;;;;;9.37;3.20;;;;;;;10.06;74.99;98622.44;5093218;28;20295;-73
2023/11/15 01:07:23;;;;;;;6.20;2.70;;;;;;;10.05;76.43;98617.31;5084563;28;20232;-69
2023/11/15 01:09:51;;;;;;;5.80;3.13;;;;;;;10.01;76.16;98619.16;5082871;28;20204;-67
2023/11/15 01:12:19;;;;;;;7.67;2.60;;;;;;;10.01;76.70;98623.44;5088202;28;20204;-66
2023/11/15 01:14:47;;;;;;;6.50;2.60;;;;;;;9.98;75.91;98621.84;5087935;28;20201;-67
2023/11/15 01:17:16;;;;;;;5.47;2.77;;;;;;;9.96;76.45;98626.19;5087743;28;20373;-67
2023/11/15 01:19:45;;;;;;;7.43;2.90;;;;;;;9.93;76.53;98621.13;5094117;28;20224;-66
2023/11/15 01:22:13;;;;;;;9.53;2.87;;;;;;;9.93;76.52;98629.69;5092805;28;20226;-66
2023/11/15 01:24:41;;;;;;;5.33;2.73;;;;;;;9.90;77.65;98618.66;5087981;28;20274;-67
2023/11/15 01:27:09;;;;;;;7.40;2.97;;;;;;;9.92;76.43;98624.59;5087558;28;20861;-67
2023/11/15 01:29:37;;;;;;;8.57;2.67;;;;;;;9.90;76.89;98629.81;5085211;28;20297;-68
2023/11/15 01:32:05;;;;;;;8.70;3.00;;;;;;;9.88;77.72;98617.88;5085982;28;20690;-67
2023/11/15 01:34:33;;;;;;;6.73;2.73;;;;;;;9.85;76.95;98615.38;5088092;28;20573;-68
2023/11/15 01:37:03;;;;;;;5.33;2.70;;;;;;;9.85;78.67;98625.69;5088843;28;20371;-68
2023/11/15 01:39:32;;;;;;;7.70;2.83;;;;;;;9.85;78.22;98620.53;5097472;28;20200;-69
2023/11/15 01:41:59;;;;;;;7.90;2.53;;;;;;;9.86;77.12;98622.22;5093728;28;20254;-68
2023/11/15 01:44:28;;;;;;;6.60;2.90;;;;;;;9.86;77.94;98619.63;5091614;28;20201;-67
2023/11/15 01:46:56;;;;;;;8.63;2.60;;;;;;;9.85;78.61;98623.94;5089401;28;20243;-69
2023/11/15 01:49:24;;;;;;;6.27;2.83;;;;;;;9.86;78.76;98628.19;5084895;28;20280;-67
2023/11/15 01:51:53;;;;;;;10.00;2.70;;;;;;;9.83;78.78;98612.00;5095403;28;20212;-68
2023/11/15 01:54:24;;;;;;;5.03;2.60;;;;;;;9.87;78.37;98618.78;5092861;28;20227;-70
2023/11/15 01:56:52;;;;;;;6.30;2.20;;;;;;;9.88;78.48;98616.13;5090659;28;20607;-67
2023/11/15 01:59:20;;;;;;;7.20;2.57;;;;;;;9.83;77.32;98623.16;5093065;28;20200;-68
2023/11/15 02:01:52;;;;;;;4.80;2.30;;;;;;;9.83;78.64;98620.59;5087694;28;20208;-68
2023/11/15 02:04:20;;;;;;;9.00;2.40;;;;;;;9.83;78.93;98617.16;5095060;28;20570;-67
2023/11/15 02:06:48;;;;;;;5.27;2.27;;;;;;;9.86;77.96;98622.22;5084890;28;20291;-67
2023/11/15 02:09:16;;;;;;;6.03;2.00;;;;;;;9.85;79.11;98623.09;5092531;28;20232;-68
2023/11/15 02:11:46;;;;;;;7.40;2.40;;;;;;;9.87;78.30;98623.91;5094172;28;20236;-68
2023/11/15 02:14:14;;;;;;;5.60;2.70;;;;;;;9.85;79.38;98623.09;5092744;28;20211;-68
2023/11/15 02:16:44;;;;;;;7.87;2.50;;;;;;;9.84;78.35;98634.28;5096041;28;20205;-68
2023/11/15 02:19:12;;;;;;;7.67;2.70;;;;;;;9.88;79.64;98643.59;5093197;28;20239;-67
2023/11/15 02:21:40;;;;;;;6.03;2.80;;;;;;;9.85;78.74;98630.81;5095398;28;20196;-67
2023/11/15 02:24:11;;;;;;;5.60;2.20;;;;;;;9.89;79.76;98627.25;5087592;28;20240;-68
2023/11/15 02:26:37;;;;;;;6.80;2.47;;;;;;;9.89;78.31;98642.69;5081609;28;20212;-68
2023/11/15 02:29:05;;;;;;;9.83;2.40;;;;;;;9.88;79.55;98641.88;5093730;28;20660;-68
2023/11/15 02:31:33;;;;;;;7.17;2.53;;;;;;;9.88;79.08;98635.88;5090933;28;20628;-66
2023/11/15 02:34:01;;;;;;;6.10;2.90;;;;;;;9.90;78.24;98644.38;5090262;28;20204;-67
2023/11/15 02:36:29;;;;;;;4.20;2.40;;;;;;;9.93;79.07;98639.13;5093977;28;20201;-68
2023/11/15 02:38:57;;;;;;;6.53;2.60;;;;;;;9.94;79.16;98638.25;5095990;28;20266;-68
2023/11/15 02:41:27;;;;;;;5.67;2.07;;;;;;;9.95;78.94;98642.50;5101298;28;20201;-69
2023/11/15 02:43:55;;;;;;;7.27;2.30;;;;;;;9.97;78.23;98639.88;5084993;28;20651;-67
2023/11/15 02:46:23;;;;;;;4.10;1.87;;;;;;;9.99;79.35;98646.66;5091751;28;20287;-68
2023/11/15 02:48:51;;;;;;;4.20;2.00;;;;;;;10.01;79.95;98652.59;5088649;28;20239;-68
2023/11/15 02:51:21;;;;;;;5.87;2.10;;;;;;;10.03;78.37;98653.41;5094639;28;20204;-67
2023/11/15 02:53:49;;;;;;;6.67;2.30;;;;;;;10.04;78.23;98651.66;5096832;28;20296;-69
2023/11/15 02:56:18;;;;;;;6.77;2.27;;;;;;;10.04;78.90;98657.66;5100021;28;20203;-69
2023/11/15 02:58:48;;;;;;;6.50;2.23;;;;;;;10.07;78.39;98654.97;5099856;28;20198;-67
2023/11/15 03:01:17;;;;;;;5.23;2.30;;;;;;;10.09;78.28;98663.50;5087526;28;20205;-66
2023/11/15 03:03:45;;;;;;;5.73;2.00;;;;;;;10.10;78.46;98657.47;5098232;28;20220;-67
2023/11/15 03:06:14;;;;;;;4.03;1.97;;;;;;;10.09;80.07;98660.94;5093589;28;20287;-66
2023/11/15 03:08:41;;;;;;;5.90;2.60;;;;;;;10.09;78.39;98660.94;5095938;28;20648;-67
2023/11/15 03:11:09;;;;;;;7.87;3.07;;;;;;;10.08;79.61;98666.94;5092607;28;20675;-66
2023/11/15 03:13:38;;;;;;;7.80;2.83;;;;;;;10.09;78.07;98671.22;5090426;28;20201;-67
2023/11/15 03:16:08;;;;;;;9.00;3.00;;;;;;;10.06;78.13;98673.91;5092257;28;20208;-66
2023/11/15 03:18:36;;;;;;;8.73;3.20;;;;;;;10.04;78.77;98677.41;5089379;28;20776;-67
2023/11/15 03:21:06;;;;;;;8.37;3.30;;;;;;;10.01;78.09;98675.75;5089470;28;20204;-66
2023/11/15 03:23:34;;;;;;;7.27;2.90;;;;;;;9.96;79.36;98672.50;5093637;28;20217;-66
2023/11/15 03:26:02;;;;;;;6.77;2.87;;;;;;;9.96;80.15;98669.09;5086807;28;20201;-65
2023/11/15 03:28:31;;;;;;;8.73;3.37;;;;;;;9.95;79.89;98665.66;5091822;28;20208;-66
2023/11/15 03:30:59;;;;;;;9.77;2.77;;;;;;;9.92;79.35;98669.16;5102616;28;20205;-67
2023/11/15 03:33:29;;;;;;;6.67;2.90;;;;;;;9.88;79.77;98664.19;5095185;28;20205;-66
2023/11/15 03:35:57;;;;;;;4.90;2.27;;;;;;;9.86;78.82;98673.66;5101709;28;20204;-66
2023/11/15 03:38:25;;;;;;;5.43;2.50;;;;;;;9.84;79.93;98678.03;5088296;28;20219;-66
2023/11/15 03:40:53;;;;;;;5.03;2.50;;;;;;;9.85;81.06;98677.13;5092352;28;20544;-65
2023/11/15 03:43:21;;;;;;;7.83;2.97;;;;;;;9.80;79.20;98672.13;5086840;28;20213;-67
2023/11/15 03:45:49;;;;;;;7.40;3.03;;;;;;;9.76;80.54;98667.13;5086792;28;20235;-69
2023/11/15 03:48:17;;;;;;;4.10;2.30;;;;;;;9.76;80.16;98680.00;5090636;28;20598;-64
2023/11/15 03:50:46;;;;;;;6.13;2.57;;;;;;;9.72;79.27;98676.69;5091475;28;20201;-67
2023/11/15 03:53:16;;;;;;;9.03;2.40;;;;;;;9.74;79.49;98681.75;5090811;28;20230;-66
2023/11/15 03:55:44;;;;;;;12.57;3.10;;;;;;;9.72;80.43;98683.53;5087581;28;20236;-67
2023/11/15 03:58:15;;;;;;;5.77;2.70;;;;;;;9.71;81.26;98684.41;5089632;28;20784;-66
2023/11/15 04:00:43;;;;;;;6.33;3.00;;;;;;;9.70;80.22;98682.75;5093012;28;20739;-67
2023/11/15 04:03:11;;;;;;;6.27;2.50;;;;;;;9.68;80.32;98681.06;5087801;28;20250;-66
2023/11/15 04:05:40;;;;;;;5.43;2.20;;;;;;;9.71;81.48;98694.72;5095963;28;20588;-66
2023/11/15 04:08:10;;;;;;;6.27;2.43;;;;;;;9.71;81.48;98689.56;5096179;28;20738;-65
2023/11/15 04:10:38;;;;;;;7.30;2.43;;;;;;;9.72;81.05;98689.53;5091715;28;20196;-67
2023/11/15 04:13:06;;;;;;;6.03;2.33;;;;;;;9.76;81.13;98692.84;5088804;28;20281;-64
2023/11/15 04:15:34;;;;;;;5.87;2.57;;;;;;;9.77;81.12;98692.81;5087985;28;20647;-64
2023/11/15 04:18:03;;;;;;;4.40;2.50;;;;;;;9.78;79.98;98683.34;5090115;28;20232;-66
2023/11/15 04:20:32;;;;;;;8.00;2.53;;;;;;;9.80;81.63;98686.72;5093819;28;20211;-66
2023/11/15 04:23:00;;;;;;;5.70;2.10;;;;;;;9.83;79.88;98681.47;5085816;28;20208;-64
2023/11/15 04:25:29;;;;;;;5.93;2.53;;;;;;;9.84;80.25;98691.72;5091582;28;20667;-67
2023/11/15 04:27:57;;;;;;;6.47;2.20;;;;;;;9.85;80.14;98692.56;5098404;28;20565;-64
2023/11/15 04:30:28;;;;;;;7.47;2.60;;;;;;;9.90;81.35;98695.81;5083499;28;20539;-67
2023/11/15 04:32:56;;;;;;;9.37;2.40;;;;;;;9.92;80.45;98696.63;5090157;28;20564;-66
2023/11/15 04:35:24;;;;;;;5.00;2.03;;;;;;;9.94;81.32;98700.00;5089734;28;20222;-66
2023/11/15 04:37:52;;;;;;;7.00;2.83;;;;;;;9.96;79.89;98698.22;5088684;28;20307;-70
2023/11/15 04:40:20;;;;;;;7.67;2.20;;;;;;;9.96;79.25;98700.78;5085479;28;20300;-68
2023/11/15 04:42:49;;;;;;;8.13;2.50;;;;;;;10.00;80.38;98698.97;5088903;28;20200;-68
2023/11/15 04:45:18;;;;;;;5.53;2.37;;;;;;;9.93;80.56;98696.56;5090508;28;20212;-71
2023/11/15 04:47:46;;;;;;;5.07;2.60;;;;;;;9.92;80.70;98705.19;5089807;28;20201;-70
2023/11/15 04:50:14;;;;;;;5.47;2.43;;;;;;;9.94;79.64;98707.72;5086215;28;20234;-69
2023/11/15 04:52:42;;;;;;;6.40;2.50;;;;;;;9.95;79.56;98703.44;5087090;28;20305;-70
2023/11/15 04:55:11;;;;;;;5.70;2.43;;;;;;;9.92;80.46;98705.19;5089908;28;20229;-71
2023/11/15 04:57:39;;;;;;;6.27;2.50;;;;;;;9.90;80.79;98706.13;5088264;28;20705;-70
2023/11/15 05:00:11;;;;;;;4.43;2.30;;;;;;;9.89;81.75;98713.00;5088788;28;20659;-69
2023/11/15 05:02:39;;;;;;;6.23;2.60;;;;;;;9.91;81.00;98707.81;5089399;28;20292;-70
2023/11/15 05:05:07;;;;;;;8.10;2.27;;;;;;;9.87;80.79;98708.81;5088483;28;20262;-69
2023/11/15 05:07:37;;;;;;;7.33;2.90;;;;;;;9.85;80.93;98706.25;5099361;28;20203;-70
2023/11/15 05:10:06;;;;;;;5.17;2.50;;;;;;;9.83;81.50;98707.19;5085763;28;20196;-69
2023/11/15 05:12:34;;;;;;;4.90;2.50;;;;;;;9.83;81.78;98714.91;5091450;28;20212;-69
2023/11/15 05:15:03;;;;;;;8.50;2.80;;;;;;;9.77;82.29;98709.97;5088845;28;20201;-71
2023/11/15 05:17:32;;;;;;;7.03;2.77;;;;;;;9.77;83.19;98709.97;5085229;28;20208;-68
2023/11/15 05:20:00;;;;;;;5.70;2.60;;;;;;;9.76;81.98;98709.13;5091849;28;20247;-69
2023/11/15 05:22:28;;;;;;;5.57;2.80;;;;;;;9.77;82.11;98717.69;5094101;28;20205;-70
2023/11/15 05:24:56;;;;;;;7.37;2.63;;;;;;;9.76;83.73;98713.44;5093480;28;20229;-68
2023/11/15 05:27:24;;;;;;;6.03;2.60;;;;;;;9.76;82.69;98709.13;5094196;28;20203;-71
2023/11/15 05:29:52;;;;;;;7.87;3.03;;;;;;;9.77;83.57;98715.13;5093597;28;20210;-69
2023/11/15 05:32:20;;;;;;;6.67;2.93;;;;;;;9.74;82.21;98710.06;5088837;28;20226;-70
2023/11/15 05:34:49;;;;;;;7.77;3.10;;;;;;;9.72;82.79;98711.81;5091425;28;20609;-70
2023/11/15 05:37:17;;;;;;;6.10;2.73;;;;;;;9.67;84.05;98717.94;5091445;28;20206;-65
2023/11/15 05:39:45;;;;;;;8.50;2.80;;;;;;;9.67;84.48;98720.50;5096215;28;20295;-65
2023/11/15 05:42:13;;;;;;;6.30;3.00;;;;;;;9.68;83.77;98717.06;5091548;28;20201;-69
2023/11/15 05:44:41;;;;;;;5.33;3.10;;;;;;;9.69;83.39;98720.47;5092895;28;20744;-70
2023/11/15 05:47:09;;;;;;;10.10;3.23;;;;;;;9.68;83.88;98722.22;5087737;28;20197;-69
2023/11/15 05:49:37;;;;;;;6.70;2.93;;;;;;;9.68;84.21;98727.38;5101412;28;20570;-69
2023/11/15 05:52:07;;;;;;;7.10;3.30;;;;;;;9.68;83.79;98731.63;5096703;28;20205;-70
2023/11/15 05:54:38;;;;;;;6.33;2.57;;;;;;;9.65;83.41;98730.03;5097846;28;20192;-69
2023/11/15 05:57:06;;;;;;;5.90;3.00;;;;;;;9.64;83.26;98732.63;5095063;28;20551;-68
2023/11/15 05:59:34;;;;;;;8.17;3.33;;;;;;;9.64;84.54;98735.19;5095875;28;20196;-67
2023/11/15 06:02:02;;;;;;;6.13;2.63;;;;;;;9.63;83.43;98736.09;5089785;28;20238;-68
2023/11/15 06:04:30;;;;;;;6.97;2.63;;;;;;;9.66;84.68;98741.97;5080248;28;20268;-69
2023/11/15 06:06:58;;;;;;;6.07;3.20;;;;;;;9.67;83.22;98742.81;5087836;28;20655;-68
2023/11/15 06:09:29;;;;;;;8.13;3.40;;;;;;;9.66;83.95;98743.72;5091337;28;20219;-68
2023/11/15 06:11:57;;;;;;;9.40;3.07;;;;;;;9.67;84.80;98751.38;5087674;28;20205;-68
2023/11/15 06:14:25;;;;;;;8.37;3.20;;;;;;;9.67;84.12;98750.53;5090698;28;20204;-69
2023/11/15 06:16:53;;;;;;;6.23;2.63;;;;;;;9.72;84.26;98752.97;5088937;28;20209;-69
2023/11/15 06:19:23;;;;;;;7.87;3.00;;;;;;;9.71;84.24;98756.44;5098298;28;20715;-68
2023/11/15 06:21:51;;;;;;;9.40;3.53;;;;;;;9.71;83.85;98756.44;5092129;28;20219;-69
2023/11/15 06:24:19;;;;;;;6.57;2.83;;;;;;;9.64;83.42;98756.59;5090730;28;20220;-68
2023/11/15 06:26:51;;;;;;;6.03;3.17;;;;;;;9.67;83.82;98756.50;5091735;28;20614;-68
2023/11/15 06:29:21;;;;;;;9.37;4.00;;;;;;;9.70;84.91;98757.34;5089779;28;20207;-68
2023/11/15 06:31:49;;;;;;;8.20;3.30;;;;;;;9.74;85.29;98753.78;5095940;28;20204;-68
2023/11/15 06:34:18;;;;;;;6.93;3.40;;;;;;;9.74;83.11;98751.22;5083408;28;20201;-69
2023/11/15 06:36:47;;;;;;;6.53;3.73;;;;;;;9.76;82.83;98754.59;5094122;28;20199;-69
2023/11/15 06:39:18;;;;;;;7.13;3.30;;;;;;;9.77;83.47;98758.84;5097114;28;20602;-67
2023/11/15 06:41:47;;;;;;;9.00;3.60;;;;;;;9.81;84.36;98763.00;5092749;28;20254;-69
2023/11/15 06:44:16;;;;;;;6.93;3.60;;;;;;;9.75;83.95;98764.00;5094427;28;20200;-67
2023/11/15 06:46:44;;;;;;;6.93;3.80;;;;;;;9.77;83.41;98766.56;5091624;28;20333;-67
2023/11/15 06:49:12;;;;;;;7.27;3.73;;;;;;;9.75;84.08;98764.00;5088855;28;20197;-68
2023/11/15 06:51:47;;;;;;;10.60;4.10;;;;;;;9.67;84.05;98766.81;5090190;28;20709;-70
2023/11/15 06:54:15;;;;;;;7.47;3.43;;;;;;;9.72;83.56;98782.13;5097123;28;20586;-68
2023/11/15 06:56:46;;;;;;;6.60;3.30;;;;;;;9.68;83.17;98776.22;5088084;28;20623;-70
2023/11/15 06:59:15;;;;;;;9.40;3.67;;;;;;;9.70;84.25;98777.91;5092944;28;20200;-77
2023/11/15 07:01:43;;;;;;;7.10;3.93;;;;;;;9.70;84.01;98795.91;5090410;28;20201;-70
2023/11/15 07:04:12;;;;;;;7.37;3.60;;;;;;;9.72;85.33;98786.41;5094149;28;20673;-70
2023/11/15 07:06:40;;;;;;;10.37;4.30;;;;;;;9.73;85.48;98788.13;5089769;28;20690;-72
2023/11/15 07:09:12;;;;;;;6.87;4.10;;;;;;;9.74;84.28;98792.38;5095175;28;20209;-69
2023/11/15 07:11:44;;;;;;;6.27;3.77;;;;;;;9.76;83.75;98795.75;5094085;28;20204;-70
2023/11/15 07:14:14;;;;;;;6.17;3.90;;;;;;;9.76;83.94;98796.59;5091275;28;20208;-70
2023/11/15 07:16:47;;;;;;;10.60;4.50;;;;;;;9.71;86.41;98802.72;5098808;28;20284;-69
2023/11/15 07:19:15;;;;;;;7.67;4.23;;;;;;;9.71;86.51;98800.16;5091467;28;20251;-70
2023/11/15 07:21:43;;;;;;;9.20;4.43;;;;;;;9.70;85.79;98807.03;5089361;28;20575;-70
2023/11/15 07:24:12;;;;;;;9.30;4.80;;;;;;;9.72;87.17;98809.56;5085067;28;20201;-71
2023/11/15 07:26:41;;;;;;;10.60;4.70;;;;;;;9.71;87.08;98800.16;5070679;28;20549;-70
2023/11/15 07:29:10;;;;;;;8.00;4.10;;;;;;;9.71;86.25;98803.56;5092718;28;20265;-70
2023/11/15 07:31:37;;;;;;;9.30;4.27;;;;;;;9.71;86.43;98807.88;5093492;28;20291;-69
2023/11/15 07:34:08;;;;;;;9.07;4.30;;;;;;;9.71;86.23;98821.56;5091896;28;20605;-69
2023/11/15 07:36:36;;;;;;;6.73;4.03;;;;;;;9.74;87.77;98825.81;5098122;28;20207;-70
2023/11/15 07:39:04;;;;;;;10.17;4.40;;;;;;;9.77;86.58;98821.41;5092297;28;20232;-72
2023/11/15 07:41:36;;;;;;;10.00;5.00;;;;;;;9.81;87.21;98829.88;5090182;28;20197;-70
2023/11/15 07:44:05;;;;;;;9.00;4.97;;;;;;;9.84;86.76;98829.81;5091003;28;20227;-73
2023/11/15 07:46:34;;;;;;;9.00;4.97;;;;;;;9.84;86.21;98822.94;5091707;28;20227;-75
2023/11/15 07:49:02;;;;;;;8.43;4.60;;;;;;;9.86;86.69;98825.44;5098952;28;20338;-66
2023/11/15 07:51:32;;;;;;;7.73;4.70;;;;;;;9.86;86.37;98822.88;5094071;28;20656;-72
2023/11/15 07:54:00;;;;;;;7.77;4.50;;;;;;;9.85;86.12;98824.59;5088473;28;20204;-76
2023/11/15 07:56:29;;;;;;;6.63;4.40;;;;;;;9.87;87.18;98829.72;5092596;28;20291;-74
2023/11/15 07:58:58;;;;;;;9.50;4.90;;;;;;;9.87;86.33;98835.72;5093372;28;20205;-75
2023/11/15 08:01:26;;;;;;;7.13;4.23;;;;;;;9.85;85.79;98840.03;5091654;28;20200;-77
2023/11/15 08:03:54;;;;;;;7.57;4.43;;;;;;;9.82;86.62;98836.72;5092243;28;20212;-73
2023/11/15 08:06:22;;;;;;;7.63;4.03;;;;;;;9.80;87.83;98846.22;5092840;28;20228;-75
2023/11/15 08:08:55;;;;;;;6.63;4.70;;;;;;;9.76;87.82;98840.31;5091163;28;20216;-77
2023/11/15 08:11:25;;;;;;;9.93;4.30;;;;;;;9.76;87.49;98836.91;5092807;28;20253;-74
2023/11/15 08:13:54;;;;;;;8.67;4.37;;;;;;;9.72;85.99;98845.56;5090741;28;20585;-73
2023/11/15 08:16:27;;;;;;;9.03;3.97;;;;;;;9.72;86.86;98845.56;5087645;28;20290;-74
2023/11/15 08:18:55;;;;;;;9.57;4.20;;;;;;;9.71;86.95;98846.47;5087925;28;20236;-71
2023/11/15 08:21:23;;;;;;;7.90;4.70;;;;;;;9.68;86.95;98848.25;5097483;28;20196;-72
2023/11/15 08:23:52;;;;;;;8.80;4.57;;;;;;;9.71;88.57;98852.44;5084826;28;20208;-70
2023/11/15 08:26:21;;;;;;;8.90;5.00;;;;;;;9.77;88.91;98848.88;5090604;28;20219;-74
2023/11/15 08:28:49;;;;;;;9.17;4.37;;;;;;;9.81;86.96;98856.47;5087980;28;20192;-64
2023/11/15 08:31:22;;;;;;;8.20;4.30;;;;;;;9.82;88.01;98853.00;5090929;28;20678;-66
2023/11/15 08:33:50;;;;;;;7.60;3.93;;;;;;;9.81;86.33;98851.31;5083565;28;20250;-73
2023/11/15 08:36:18;;;;;;;8.60;4.33;;;;;;;9.79;86.31;98854.81;5088722;28;20287;-72
2023/11/15 08:38:46;;;;;;;7.90;3.57;;;;;;;9.80;86.10;98859.09;5087849;28;20601;-68
2023/11/15 08:41:19;;;;;;;7.17;3.87;;;;;;;9.77;86.63;98854.00;5090738;28;20215;-70
2023/11/15 08:43:48;;;;;;;7.13;4.10;;;;;;;9.84;86.09;98861.53;5090712;28;20226;-71
2023/11/15 08:46:16;;;;;;;10.17;4.03;;;;;;;9.88;85.62;98865.69;5087401;28;20319;-70
2023/11/15 08:48:44;;;;;;;5.37;3.33;;;;;;;9.92;84.94;98867.28;5092195;28;20211;-71
2023/11/15 08:51:17;;;;;;;7.97;3.77;;;;;;;10.04;85.54;98870.41;5091836;28;20200;-69
2023/11/15 08:53:47;;;;;;;8.03;3.80;;;;;;;10.09;84.61;98871.13;5090526;28;20208;-68
2023/11/15 08:56:18;;;;;;;5.83;3.53;;;;;;;10.12;84.24;98874.44;5093602;28;20567;-69
2023/11/15 08:58:47;;;;;;;6.57;3.00;;;;;;;10.18;83.18;98888.88;5089172;28;20199;-70
2023/11/15 09:01:16;;;;;;;6.00;3.03;;;;;;;10.16;82.75;98894.09;5088501;28;20205;-68
2023/11/15 09:03:44;;;;;;;6.07;2.77;;;;;;;10.18;82.38;98898.34;5090197;28;20208;-69
2023/11/15 09:06:14;;;;;;;5.63;3.20;;;;;;;10.24;81.73;98903.31;5088348;28;20668;-68
2023/11/15 09:08:44;;;;;;;5.03;3.20;;;;;;;10.23;81.99;98905.03;5086486;28;20204;-69
2023/11/15 09:11:14;;;;;;;3.13;2.50;;;;;;;10.24;80.79;98905.91;5089664;28;20549;-69
2023/11/15 09:13:46;;;;;;;4.57;2.63;;;;;;;10.25;81.52;98912.72;5095030;28;20223;-72
2023/11/15 09:16:14;;;;;;;2.73;2.50;;;;;;;10.32;80.30;98914.28;5099369;28;20245;-71
2023/11/15 09:18:43;;;;;;;4.50;2.63;;;;;;;10.36;81.08;98910.72;5083971;28;20235;-71
2023/11/15 09:21:12;;;;;;;6.03;2.43;;;;;;;10.33;79.21;98911.63;5099125;28;20571;-71
2023/11/15 09:23:41;;;;;;;4.70;2.50;;;;;;;10.30;79.38;98921.19;5091566;28;20557;-72
2023/11/15 09:26:18;;;;;;;6.60;2.60;;;;;;;10.30;81.02;98910.88;5094800;28;20250;-72
2023/11/15 09:28:48;;;;;;;4.00;2.40;;;;;;;10.28;79.34;98908.38;5096496;28;20200;-71
2023/11/15 09:31:17;;;;;;;3.37;2.50;;;;;;;10.27;79.01;98910.97;5096015;28;20285;-72
2023/11/15 09:33:45;;;;;;;3.23;2.30;;;;;;;10.27;79.83;98898.09;5095041;28;20202;-72
2023/11/15 09:36:14;;;;;;;3.83;2.40;;;;;;;10.32;79.61;98907.38;5099531;28;20197;-72
2023/11/15 09:38:43;;;;;;;4.13;2.33;;;;;;;10.32;78.36;98901.41;5101262;28;20223;-72
2023/11/15 09:41:13;;;;;;;4.00;2.60;;;;;;;10.36;79.16;98910.72;5101996;28;20205;-71
2023/11/15 09:43:41;;;;;;;3.03;2.13;;;;;;;10.38;78.48;98914.94;5093498;28;20197;-71
2023/11/15 09:46:12;;;;;;;4.53;2.10;;;;;;;10.33;78.80;98895.34;5095204;28;20292;-72
2023/11/15 09:48:43;;;;;;;3.27;2.27;;;;;;;10.39;78.31;98911.47;5095131;28;20219;-72
2023/11/15 09:51:25;;;;;;;5.30;2.17;;;;;;;10.40;77.91;98907.16;5103303;28;20195;-71
2023/11/15 09:53:55;;;;;;;2.77;2.33;;;;;;;10.47;78.46;98915.56;5097479;28;20663;-71
2023/11/15 09:56:40;;;;;;;5.03;2.57;;;;;;;10.46;78.39;98914.72;5095764;28;20302;-72
2023/11/15 09:59:09;;;;;;;5.43;2.60;;;;;;;10.44;78.08;98916.47;5101810;28;20205;-71
2023/11/15 10:01:46;;;;;;;3.27;2.17;;;;;;;10.45;78.37;98920.72;5099244;28;20192;-71
2023/11/15 10:04:24;;;;;;;2.90;2.30;;;;;;;10.50;77.78;98923.19;5095973;28;20258;-69
2023/11/15 10:06:55;;;;;;;4.70;2.53;;;;;;;10.51;78.81;98930.03;5070203;28;20290;-70
2023/11/15 10:09:38;;;;;;;3.17;2.30;;;;;;;10.43;78.18;98927.69;5091345;28;20200;-70
2023/11/15 10:12:08;;;;;;;5.67;2.67;;;;;;;10.43;78.88;98921.69;5085987;28;20203;-67
2023/11/15 10:14:51;;;;;;;9.13;2.80;;;;;;;10.38;78.60;98924.38;5091409;28;20204;-69
2023/11/15 10:17:38;;;;;;;5.93;3.33;;;;;;;10.32;78.23;98933.13;5091140;28;21224;-64
2023/11/15 10:20:18;;;;;;;4.97;3.37;;;;;;;10.28;79.59;98928.13;5091198;28;20251;-65
2023/11/15 10:22:46;;;;;;;5.30;4.10;;;;;;;10.24;80.11;98926.50;5091249;28;20266;-66
2023/11/15 10:25:15;;;;;;;7.33;4.43;;;;;;;10.22;81.05;98931.66;5092036;28;20205;-63
2023/11/15 10:27:44;;;;;;;9.47;4.40;;;;;;;10.20;81.34;98924.84;5101208;28;20246;-66
2023/11/15 10:30:15;;;;;;;7.47;5.07;;;;;;;10.16;80.60;98919.81;5090022;28;20215;-70
2023/11/15 10:32:46;;;;;;;7.17;4.77;;;;;;;10.17;81.02;98930.97;5091690;28;20223;-69
2023/11/15 10:35:28;;;;;;;14.03;4.73;;;;;;;10.18;80.50;98926.66;5091038;28;20325;-69
2023/11/15 10:37:57;;;;;;;5.03;3.07;;;;;;;10.14;80.35;98929.31;5091807;28;20649;-74
2023/11/15 10:40:28;;;;;;;4.63;3.60;;;;;;;10.10;79.48;98930.28;5094041;28;21281;-73
2023/11/15 10:43:02;;;;;;;4.83;3.30;;;;;;;10.08;78.51;98934.59;5091819;28;20295;-73
2023/11/15 10:45:34;;;;;;;4.77;3.27;;;;;;;10.04;79.35;98940.72;5085913;28;20207;-73
2023/11/15 10:48:05;;;;;;;4.30;2.93;;;;;;;10.02;77.68;98939.94;5091510;28;20591;-76
2023/11/15 10:50:38;;;;;;;5.83;3.00;;;;;;;9.99;78.33;98944.31;5094501;28;20199;-74
2023/11/15 10:53:10;;;;;;;6.00;3.40;;;;;;;9.97;77.31;98939.19;5092377;28;20211;-72
2023/11/15 10:55:39;;;;;;;4.43;2.90;;;;;;;9.94;77.58;98944.44;5094539;28;20716;-71
2023/11/15 10:58:11;;;;;;;5.50;3.07;;;;;;;9.93;78.68;98950.47;5092850;28;20663;-69
2023/11/15 11:00:41;;;;;;;3.43;2.73;;;;;;;10.00;78.20;98954.56;5091296;28;20223;-72
2023/11/15 11:03:14;;;;;;;4.93;3.43;;;;;;;10.11;77.09;98952.53;5089243;28;20668;-76
2023/11/15 11:05:48;;;;;;;5.67;3.40;;;;;;;10.19;77.84;98954.06;5090973;28;20745;-72
2023/11/15 11:08:28;;;;;;;5.17;3.17;;;;;;;10.19;77.24;98954.06;5092318;28;20794;-72
2023/11/15 11:11:08;;;;;;;4.77;3.00;;;;;;;10.18;75.85;98950.66;5093408;28;20564;-70
2023/11/15 11:13:38;;;;;;;5.57;2.57;;;;;;;10.18;75.35;98963.53;5093533;28;20220;-71
2023/11/15 11:16:34;;;;;;;3.97;2.43;;;;;;;10.11;75.91;98960.28;5084493;28;20212;-72
2023/11/15 11:19:16;;;;;;;9.10;2.77;;;;;;;10.06;76.53;98964.72;5090728;28;20711;-69
2023/11/15 11:22:05;;;;;;;3.37;2.10;;;;;;;10.04;76.14;98956.16;5092593;28;20200;-71
2023/11/15 11:24:35;;;;;;;4.17;2.67;;;;;;;10.02;76.29;98968.25;5086734;28;20197;-70
2023/11/15 11:27:34;;;;;;;4.77;2.50;;;;;;;10.04;75.08;98969.03;5092226;28;20211;-70
2023/11/15 11:30:17;;;;;;;5.30;2.40;;;;;;;10.05;75.57;98968.19;5024409;28;20213;-71
2023/11/15 11:32:49;;;;;;;3.40;2.10;;;;;;;10.12;75.50;98969.66;5087634;28;20674;-73
2023/11/15 11:35:34;;;;;;;2.50;2.20;;;;;;;10.18;76.29;98970.41;5088998;28;20311;-71
2023/11/15 11:38:03;;;;;;;4.53;2.73;;;;;;;10.25;74.91;98984.81;5089756;28;20265;-70
2023/11/15 11:40:38;;;;;;;3.37;2.30;;;;;;;10.26;74.78;98984.78;5093081;28;20205;-70
2023/11/15 11:43:22;;;;;;;7.07;3.10;;;;;;;10.29;76.14;98976.97;5092203;28;20235;-70
2023/11/15 11:45:53;;;;;;;4.40;2.50;;;;;;;10.30;75.63;98988.13;5093086;28;20208;-71
2023/11/15 11:48:24;;;;;;;3.33;2.40;;;;;;;10.34;74.94;98993.13;5089615;28;20224;-70
2023/11/15 11:51:03;;;;;;;5.57;2.93;;;;;;;10.40;74.89;98994.72;5086541;28;20261;-76